Time;durP1;ratioP1;P1;durP2;ratioP2;P2;SDS_P1;SDS_P2;PMS_P1;PMS_P2;Temp;Humidity;BMP_temperature;BMP_pressure;BME280_temperature;BME280_humidity;BME280_pressure;Samples;Min_cycle;Max_cycle;Signal;HPM_P1;HPM_P2
2021/01/15 00:01:23;;;;;;;21.02;10.75;;;;;;;3.67;58.01;102226.59;4914507;28;119192;-69
2021/01/15 00:03:51;;;;;;;21.63;11.52;;;;;;;3.68;57.67;102228.34;4896591;28;118194;-69
2021/01/15 00:06:23;;;;;;;17.08;10.95;;;;;;;3.67;57.63;102227.47;4915247;28;124027;-69
2021/01/15 00:08:51;;;;;;;21.17;11.13;;;;;;;3.68;57.83;102223.97;4899706;28;122821;-69
2021/01/15 00:11:23;;;;;;;17.80;10.82;;;;;;;3.67;57.66;102227.47;4913893;28;120819;-69
2021/01/15 00:13:51;;;;;;;19.63;10.48;;;;;;;3.66;57.86;102224.84;4914635;28;120359;-69
2021/01/15 00:16:25;;;;;;;17.92;10.75;;;;;;;3.66;57.63;102235.34;4914614;28;123539;-68
2021/01/15 00:18:53;;;;;;;16.20;9.90;;;;;;;3.65;57.71;102234.44;4915864;28;122298;-69
2021/01/15 00:21:24;;;;;;;18.95;10.05;;;;;;;3.66;57.76;102236.19;4912293;28;119653;-69
2021/01/15 00:23:55;;;;;;;16.95;10.05;;;;;;;3.66;57.56;102237.94;4914993;28;119235;-69
2021/01/15 00:26:24;;;;;;;17.77;10.77;;;;;;;3.64;57.59;102232.69;4913731;28;124081;-69
2021/01/15 00:28:52;;;;;;;18.08;10.02;;;;;;;3.64;57.57;102235.31;4910306;28;124346;-69
2021/01/15 00:31:19;;;;;;;17.80;10.18;;;;;;;3.65;57.56;102239.66;4914399;28;120027;-69
2021/01/15 00:33:46;;;;;;;17.92;10.15;;;;;;;3.66;57.26;102230.09;4910876;28;119382;-69
2021/01/15 00:36:13;;;;;;;18.02;9.38;;;;;;;3.64;57.61;102235.31;4912566;28;123791;-69
2021/01/15 00:38:39;;;;;;;17.70;10.48;;;;;;;3.63;57.46;102246.66;4910531;28;124221;-70
2021/01/15 00:41:09;;;;;;;15.68;9.80;;;;;;;3.62;57.51;102250.16;4892250;28;117208;-68
2021/01/15 00:43:36;;;;;;;15.52;10.05;;;;;;;3.61;57.60;102251.00;4912977;28;119140;-69
2021/01/15 00:46:07;;;;;;;17.58;10.23;;;;;;;3.60;57.66;102251.88;4916171;28;122692;-69
2021/01/15 00:48:35;;;;;;;17.52;10.13;;;;;;;3.60;57.41;102251.88;4894660;28;123356;-69
2021/01/15 00:51:09;;;;;;;18.92;10.52;;;;;;;3.59;57.52;102255.34;4912747;28;119770;-69
2021/01/15 00:53:36;;;;;;;18.33;10.50;;;;;;;3.60;57.69;102261.47;4910589;28;118011;-69
2021/01/15 00:56:04;;;;;;;19.25;11.13;;;;;;;3.59;57.56;102259.72;4913319;28;123776;-69
2021/01/15 00:58:31;;;;;;;15.85;10.43;;;;;;;3.59;57.40;102265.84;4911781;28;124801;-69
2021/01/15 01:00:57;;;;;;;14.98;10.02;;;;;;;3.59;57.59;102260.59;4910241;28;120646;-69
2021/01/15 01:03:37;;;;;;;16.20;9.90;;;;;;;3.57;57.34;102262.34;4907862;28;119148;-69
2021/01/15 01:06:28;;;;;;;17.23;10.57;;;;;;;3.57;57.43;102266.69;4908488;28;123822;-69
2021/01/15 01:08:55;;;;;;;16.35;9.90;;;;;;;3.57;57.62;102267.56;4911162;28;124893;-69
2021/01/15 01:11:24;;;;;;;16.00;9.98;;;;;;;3.55;57.35;102264.06;4894279;28;118322;-69
2021/01/15 01:13:53;;;;;;;17.02;10.38;;;;;;;3.54;57.32;102272.78;4879603;28;118086;-69
2021/01/15 01:16:22;;;;;;;16.25;9.35;;;;;;;3.51;57.08;102267.53;4909000;28;124091;-69
2021/01/15 01:18:49;;;;;;;16.38;9.75;;;;;;;3.51;56.96;102278.00;4913702;28;123462;-69
2021/01/15 01:21:16;;;;;;;14.88;9.45;;;;;;;3.48;57.25;102275.34;4909973;28;119482;-69
2021/01/15 01:23:43;;;;;;;16.88;10.32;;;;;;;3.49;57.41;102285.00;4915474;28;119293;-69
2021/01/15 01:26:11;;;;;;;17.13;10.20;;;;;;;3.51;57.34;102293.72;4914379;28;124455;-69
2021/01/15 01:28:39;;;;;;;15.88;9.85;;;;;;;3.51;57.22;102293.72;4897680;28;123961;-68
2021/01/15 01:31:06;;;;;;;14.05;8.65;;;;;;;3.51;57.15;102293.72;4922813;28;119338;-68
2021/01/15 01:33:33;;;;;;;15.68;10.27;;;;;;;3.52;57.22;102295.47;4920087;28;118218;-69
2021/01/15 01:35:59;;;;;;;18.00;9.93;;;;;;;3.52;57.05;102303.31;4918372;28;124820;-69
2021/01/15 01:38:26;;;;;;;13.40;9.32;;;;;;;3.51;56.81;102304.19;4912393;28;123935;-69
2021/01/15 01:40:53;;;;;;;15.25;9.25;;;;;;;3.50;57.01;102302.44;4920528;28;118586;-69
2021/01/15 01:43:19;;;;;;;14.60;9.07;;;;;;;3.50;56.95;102307.69;4910930;28;117634;-68
2021/01/15 01:45:46;;;;;;;14.13;8.88;;;;;;;3.49;56.93;102317.28;4914131;28;124194;-68
2021/01/15 01:48:14;;;;;;;13.63;9.30;;;;;;;3.51;56.85;102317.31;4916544;28;126230;-69
2021/01/15 01:50:41;;;;;;;16.27;9.30;;;;;;;3.51;56.91;102320.78;4917846;28;120123;-69
2021/01/15 01:53:13;;;;;;;16.85;9.98;;;;;;;3.51;56.91;102318.16;4914628;28;119877;-69
2021/01/15 01:55:41;;;;;;;14.57;9.23;;;;;;;3.52;56.81;102326.91;4913433;28;124165;-69
2021/01/15 01:58:10;;;;;;;15.05;9.10;;;;;;;3.54;56.91;102325.16;4914731;28;124623;-68
2021/01/15 02:00:39;;;;;;;14.48;9.13;;;;;;;3.54;56.70;102333.03;4909068;28;119822;-69
2021/01/15 02:03:07;;;;;;;14.05;9.50;;;;;;;3.56;56.80;102339.19;4912201;28;119132;-68
2021/01/15 02:05:34;;;;;;;13.10;8.95;;;;;;;3.57;56.72;102340.03;4897472;28;122909;-69
2021/01/15 02:08:00;;;;;;;14.80;9.45;;;;;;;3.58;56.60;102345.31;4913532;28;122896;-69
2021/01/15 02:10:36;;;;;;;15.23;9.63;;;;;;;3.60;56.54;102346.19;4899159;28;117953;-69
2021/01/15 02:13:10;;;;;;;13.55;9.40;;;;;;;3.61;56.73;102353.16;4896110;28;118092;-68
2021/01/15 02:15:51;;;;;;;13.57;9.00;;;;;;;3.64;56.81;102349.72;4915860;28;123901;-69
2021/01/15 02:18:31;;;;;;;16.33;9.15;;;;;;;3.67;56.58;102355.88;4898185;28;124779;-68
2021/01/15 02:21:19;;;;;;;13.32;8.93;;;;;;;3.70;56.62;102357.63;4897464;28;119085;-69
2021/01/15 02:23:48;;;;;;;17.35;9.35;;;;;;;3.75;56.73;102355.03;4913482;28;120340;-68
2021/01/15 02:26:50;;;;;;;16.48;10.40;;;;;;;3.76;56.77;102351.56;4915069;28;123926;-69
2021/01/15 02:29:35;;;;;;;15.27;9.80;;;;;;;3.80;56.77;102358.56;4916079;28;124936;-69
2021/01/15 02:32:23;;;;;;;15.02;9.32;;;;;;;3.84;56.70;102361.22;4912101;28;118292;-69
2021/01/15 02:35:05;;;;;;;15.52;10.23;;;;;;;3.88;56.79;102367.34;4911950;28;119582;-69
2021/01/15 02:37:51;;;;;;;12.75;8.68;;;;;;;3.92;56.62;102368.25;4914841;28;124439;-69
2021/01/15 02:40:28;;;;;;;15.23;8.95;;;;;;;3.96;56.65;102376.16;4913048;28;124057;-69
2021/01/15 02:42:56;;;;;;;14.90;8.73;;;;;;;3.99;56.74;102378.78;4913295;28;120343;-68
2021/01/15 02:45:23;;;;;;;15.95;9.75;;;;;;;4.03;56.76;102367.47;4916321;28;119885;-69
2021/01/15 02:47:54;;;;;;;14.90;9.40;;;;;;;4.07;56.68;102379.75;4915417;28;123989;-69
2021/01/15 02:50:27;;;;;;;14.38;9.07;;;;;;;4.09;56.76;102378.00;4911877;28;123706;-68
2021/01/15 02:52:54;;;;;;;16.25;9.80;;;;;;;4.15;56.63;102376.28;4915835;28;120966;-69
2021/01/15 02:55:23;;;;;;;15.85;9.38;;;;;;;4.19;56.85;102388.56;4899088;28;96941;-68
2021/01/15 02:57:50;;;;;;;15.63;9.27;;;;;;;4.22;56.77;102389.44;4912348;28;124479;-69
2021/01/15 03:00:20;;;;;;;14.32;9.82;;;;;;;4.25;56.75;102394.69;4910400;28;123015;-69
2021/01/15 03:02:58;;;;;;;13.43;9.48;;;;;;;4.28;56.72;102399.09;4898518;28;119990;-69
2021/01/15 03:05:33;;;;;;;14.88;9.70;;;;;;;4.31;56.90;102400.84;4910876;28;118249;-69
2021/01/15 03:08:03;;;;;;;14.32;8.70;;;;;;;4.34;56.76;102404.38;4894096;28;123515;-69
2021/01/15 03:10:32;;;;;;;13.52;9.00;;;;;;;4.37;56.66;102399.16;4913378;28;125325;-69
2021/01/15 03:13:01;;;;;;;15.07;9.95;;;;;;;4.40;56.81;102403.53;4912998;28;120009;-68
2021/01/15 03:15:33;;;;;;;13.27;9.23;;;;;;;4.42;56.83;102407.91;4917776;28;119003;-69
2021/01/15 03:18:00;;;;;;;15.13;9.73;;;;;;;4.45;56.97;102407.94;4911013;28;124709;-69
2021/01/15 03:20:27;;;;;;;15.27;9.80;;;;;;;4.49;56.79;102414.09;4893849;28;123532;-69
2021/01/15 03:22:54;;;;;;;15.45;10.25;;;;;;;4.50;56.77;102405.31;4893959;28;118081;-69
2021/01/15 03:25:21;;;;;;;14.40;9.55;;;;;;;4.52;56.62;102413.22;4910432;28;118278;-68
2021/01/15 03:27:47;;;;;;;15.25;10.35;;;;;;;4.54;56.67;102416.72;4911211;28;124008;-69
2021/01/15 03:30:19;;;;;;;13.80;8.98;;;;;;;4.55;56.60;102418.47;4913238;28;123352;-69
2021/01/15 03:32:47;;;;;;;14.77;9.45;;;;;;;4.57;56.74;102411.50;4909618;28;120809;-70
2021/01/15 03:35:23;;;;;;;14.80;10.18;;;;;;;4.61;56.81;102423.75;4878095;28;118816;-69
2021/01/15 03:37:51;;;;;;;;;;;;;;;4.60;56.80;102428.13;4911713;28;124153;-69
2021/01/15 03:40:18;;;;;;;14.73;9.20;;;;;;;4.61;56.61;102423.75;4913208;28;123707;-70
2021/01/15 03:42:44;;;;;;;15.23;10.65;;;;;;;4.61;56.50;102429.00;4918055;28;119526;-69
2021/01/15 03:45:12;;;;;;;14.07;9.52;;;;;;;4.61;56.85;102434.25;4909890;28;118415;-69
2021/01/15 03:47:38;;;;;;;17.55;10.23;;;;;;;4.60;56.67;102432.50;4913761;28;123971;-69
2021/01/15 03:50:06;;;;;;;14.40;9.63;;;;;;;4.61;57.01;102436.88;4912558;28;124663;-69
2021/01/15 03:52:32;;;;;;;15.95;10.35;;;;;;;4.62;56.67;102441.28;4915244;28;119471;-69
2021/01/15 03:54:59;;;;;;;16.17;10.40;;;;;;;4.62;56.60;102436.03;4915037;28;118818;-69
2021/01/15 03:57:25;;;;;;;18.33;10.30;;;;;;;4.63;56.72;102437.75;4911878;28;124618;-69
2021/01/15 03:59:52;;;;;;;14.52;9.82;;;;;;;4.63;56.76;102437.75;4913689;28;125000;-68
2021/01/15 04:02:19;;;;;;;15.52;9.82;;;;;;;4.64;56.83;102435.16;4913394;28;119643;-69
2021/01/15 04:04:49;;;;;;;18.30;10.32;;;;;;;4.67;57.02;102439.53;4911177;28;119164;-69
2021/01/15 04:07:16;;;;;;;14.98;9.60;;;;;;;4.68;57.05;102446.53;4896127;28;123382;-69
2021/01/15 04:09:43;;;;;;;16.70;10.90;;;;;;;4.70;56.98;102444.81;4917115;28;124215;-69
2021/01/15 04:12:10;;;;;;;19.85;10.85;;;;;;;4.70;56.70;102455.31;4913151;28;119995;-69
2021/01/15 04:14:38;;;;;;;16.10;10.82;;;;;;;4.70;56.68;102444.81;4909785;28;119007;-69
2021/01/15 04:17:05;;;;;;;18.20;10.32;;;;;;;4.70;56.73;102454.44;4913980;28;124004;-69
2021/01/15 04:19:32;;;;;;;18.17;10.60;;;;;;;4.69;56.83;102453.56;4908911;28;123969;-69
2021/01/15 04:21:59;;;;;;;18.63;10.38;;;;;;;4.69;56.94;102458.81;4911035;28;120645;-69
2021/01/15 04:24:25;;;;;;;15.25;10.30;;;;;;;4.69;56.86;102456.19;4911021;28;119215;-69
2021/01/15 04:26:56;;;;;;;16.30;10.27;;;;;;;4.71;56.64;102462.31;4914469;28;124447;-69
2021/01/15 04:29:24;;;;;;;15.27;10.13;;;;;;;4.70;56.69;102455.31;4898953;28;123955;-69
2021/01/15 04:31:51;;;;;;;17.95;10.77;;;;;;;4.71;56.91;102467.56;4912219;28;118957;-69
2021/01/15 04:34:18;;;;;;;16.75;11.43;;;;;;;4.71;57.04;102462.31;4911626;28;118915;-69
2021/01/15 04:36:45;;;;;;;18.13;11.25;;;;;;;4.70;56.90;102460.56;4911586;28;124136;-71
2021/01/15 04:39:12;;;;;;;16.73;10.98;;;;;;;4.71;56.68;102467.56;4913352;28;123330;-69
2021/01/15 04:41:41;;;;;;;17.80;10.85;;;;;;;4.72;56.74;102463.19;4911984;28;119311;-69
2021/01/15 04:44:08;;;;;;;19.50;11.48;;;;;;;4.73;56.92;102467.53;4915536;28;119203;-69
2021/01/15 04:46:39;;;;;;;19.15;10.93;;;;;;;4.71;57.15;102467.56;4915051;28;124002;-69
2021/01/15 04:49:10;;;;;;;17.92;11.20;;;;;;;4.74;57.00;102477.19;4896430;28;124581;-69
2021/01/15 04:51:38;;;;;;;17.33;10.63;;;;;;;4.75;57.20;102487.72;4912533;28;119472;-69
2021/01/15 04:54:11;;;;;;;18.00;11.43;;;;;;;4.76;56.89;102481.56;4912869;28;119569;-69
2021/01/15 04:56:51;;;;;;;17.42;11.90;;;;;;;4.77;56.93;102488.59;4912901;28;124293;-69
2021/01/15 04:59:18;;;;;;;19.85;11.07;;;;;;;4.76;56.79;102481.56;4912811;28;123963;-69
2021/01/15 05:01:47;;;;;;;17.17;11.15;;;;;;;4.75;56.94;102490.31;4902452;28;120063;-69
2021/01/15 05:04:17;;;;;;;18.65;11.15;;;;;;;4.78;57.10;102502.59;4913311;28;118614;-69
2021/01/15 05:06:45;;;;;;;16.15;10.55;;;;;;;4.79;57.15;102497.34;4916986;28;124029;-69
2021/01/15 05:09:24;;;;;;;16.27;10.65;;;;;;;4.78;57.15;102490.31;4899607;28;123977;-69
2021/01/15 05:11:52;;;;;;;19.05;12.20;;;;;;;4.77;57.18;102493.84;4917198;28;120121;-70
2021/01/15 05:14:20;;;;;;;19.70;11.68;;;;;;;4.79;57.05;102491.22;4914025;28;122390;-69
2021/01/15 05:16:49;;;;;;;21.15;13.40;;;;;;;4.78;57.33;102495.56;4930823;22;124298;-68
2021/01/15 05:19:17;;;;;;;16.92;11.85;;;;;;;4.79;57.26;102504.34;4932501;28;122428;-67
2021/01/15 05:21:50;;;;;;;20.23;11.43;;;;;;;4.78;56.96;102498.19;4931180;28;119460;-67
2021/01/15 05:24:18;;;;;;;21.48;13.40;;;;;;;4.76;57.08;102505.19;4911335;28;118008;-68
2021/01/15 05:26:45;;;;;;;20.60;12.05;;;;;;;4.77;57.35;102506.09;4930259;28;124928;-67
2021/01/15 05:29:11;;;;;;;19.50;12.95;;;;;;;4.76;57.28;102518.31;4929778;28;124251;-68
2021/01/15 05:31:49;;;;;;;20.45;12.55;;;;;;;4.76;57.49;102523.56;4928087;28;119100;-68
2021/01/15 05:34:16;;;;;;;22.42;11.95;;;;;;;4.78;57.36;102532.31;4912638;28;118147;-67
2021/01/15 05:36:43;;;;;;;19.65;12.80;;;;;;;4.79;57.68;102531.47;4931489;28;123837;-67
2021/01/15 05:39:15;;;;;;;20.95;12.80;;;;;;;4.79;57.49;102534.09;4914456;28;125995;-68
2021/01/15 05:41:42;;;;;;;19.85;12.38;;;;;;;4.79;57.56;102534.09;4929316;28;119263;-68
2021/01/15 05:44:10;;;;;;;21.38;11.80;;;;;;;4.79;57.51;102531.47;4928720;28;120040;-67
2021/01/15 05:46:46;;;;;;;19.17;12.07;;;;;;;4.81;57.51;102542.84;4911839;28;124786;-67
2021/01/15 05:49:13;;;;;;;19.92;12.52;;;;;;;4.84;57.63;102545.50;4926823;28;124685;-67
2021/01/15 05:51:40;;;;;;;19.20;12.20;;;;;;;4.84;57.45;102532.38;4930689;28;119691;-67
2021/01/15 05:54:07;;;;;;;27.40;12.93;;;;;;;4.85;57.61;102542.00;4929671;28;118877;-67
2021/01/15 05:56:45;;;;;;;22.23;13.38;;;;;;;4.85;57.59;102549.88;4930556;28;124340;-68
2021/01/15 05:59:16;;;;;;;20.38;13.25;;;;;;;4.85;57.62;102544.63;4929522;28;123838;-67
2021/01/15 06:02:12;;;;;;;21.90;12.95;;;;;;;4.82;57.50;102546.34;4931263;28;120203;-68
2021/01/15 06:04:40;;;;;;;22.23;13.65;;;;;;;4.81;57.88;102553.34;4892930;28;120312;-67
2021/01/15 06:07:13;;;;;;;23.85;13.93;;;;;;;4.81;57.86;102561.22;4930920;28;124475;-67
2021/01/15 06:09:41;;;;;;;22.52;13.27;;;;;;;4.80;57.97;102562.13;4928397;28;123282;-67
2021/01/15 06:12:10;;;;;;;25.00;14.68;;;;;;;4.81;58.04;102569.09;4912187;28;118251;-67
2021/01/15 06:14:52;;;;;;;22.45;14.52;;;;;;;4.82;57.76;102570.88;4929784;28;119745;-67
2021/01/15 06:17:20;;;;;;;22.25;14.27;;;;;;;4.81;57.92;102563.84;4910062;28;123084;-68
2021/01/15 06:19:49;;;;;;;22.95;14.20;;;;;;;4.80;57.74;102567.38;4913674;28;122747;-68
2021/01/15 06:22:44;;;;;;;26.80;14.70;;;;;;;4.79;58.00;102570.84;4912875;28;118354;-68
2021/01/15 06:25:25;;;;;;;23.40;13.95;;;;;;;4.75;58.04;102574.31;4929959;28;119195;-68
2021/01/15 06:27:57;;;;;;;23.45;14.27;;;;;;;4.74;58.26;102572.56;4927163;28;124742;-68
2021/01/15 06:30:29;;;;;;;24.80;15.70;;;;;;;4.75;58.10;102579.56;4901801;28;123279;-68
2021/01/15 06:33:12;;;;;;;27.60;15.45;;;;;;;4.76;58.19;102586.56;4897632;28;118211;-68
2021/01/15 06:35:44;;;;;;;25.85;16.52;;;;;;;4.77;58.07;102585.72;4924752;28;119440;-68
2021/01/15 06:38:14;;;;;;;30.13;16.73;;;;;;;4.79;58.04;102590.97;4928082;28;124925;-69
2021/01/15 06:40:43;;;;;;;25.90;15.07;;;;;;;4.78;58.28;102590.06;4928282;28;123682;-67
2021/01/15 06:43:30;;;;;;;26.52;16.75;;;;;;;4.79;58.37;102607.59;4912127;28;118816;-68
2021/01/15 06:46:00;;;;;;;28.02;15.93;;;;;;;4.79;58.22;102607.59;4912937;28;118123;-67
2021/01/15 06:48:32;;;;;;;28.20;16.48;;;;;;;4.78;58.35;102605.81;4911876;28;123289;-67
2021/01/15 06:51:00;;;;;;;27.23;16.48;;;;;;;4.78;58.27;102611.06;4924580;28;124144;-68
2021/01/15 06:53:34;;;;;;;28.95;17.40;;;;;;;4.77;58.27;102617.19;4928569;28;120532;-68
2021/01/15 06:56:02;;;;;;;27.33;16.27;;;;;;;4.75;58.22;102616.31;4925628;28;119872;-68
2021/01/15 06:58:40;;;;;;;32.78;17.08;;;;;;;4.74;58.61;102616.31;4930429;28;124196;-68
2021/01/15 07:01:15;;;;;;;29.35;17.05;;;;;;;4.73;58.62;102620.69;4926374;28;123195;-68
2021/01/15 07:03:51;;;;;;;27.48;17.13;;;;;;;4.74;58.38;102622.41;4926510;28;119180;-68
2021/01/15 07:06:32;;;;;;;28.30;17.17;;;;;;;4.75;58.46;102626.81;4896011;28;118046;-68
2021/01/15 07:09:05;;;;;;;30.80;17.67;;;;;;;4.74;58.29;102627.66;4931189;28;122902;-68
2021/01/15 07:11:33;;;;;;;31.90;17.05;;;;;;;4.75;58.98;102629.44;4927537;28;124011;-70
2021/01/15 07:14:02;;;;;;;29.33;18.02;;;;;;;4.75;58.43;102621.56;4923717;28;119504;-70
2021/01/15 07:16:32;;;;;;;28.23;17.50;;;;;;;4.77;58.33;102632.97;4928743;28;119034;-69
2021/01/15 07:19:05;;;;;;;29.67;17.10;;;;;;;4.77;58.57;102632.09;4929700;28;126357;-70
2021/01/15 07:21:37;;;;;;;30.92;16.90;;;;;;;4.77;58.52;102632.09;4928006;28;124403;-68
2021/01/15 07:24:05;;;;;;;30.02;17.90;;;;;;;4.78;58.47;102632.06;4925272;28;119205;-68
2021/01/15 07:26:39;;;;;;;29.92;18.17;;;;;;;4.80;58.64;102635.63;4929759;28;119391;-70
2021/01/15 07:29:09;;;;;;;32.58;18.38;;;;;;;4.80;58.61;102646.13;4914316;28;124694;-69
2021/01/15 07:31:40;;;;;;;29.50;17.15;;;;;;;4.80;58.70;102645.22;4911470;28;123301;-69
2021/01/15 07:34:14;;;;;;;28.58;16.90;;;;;;;4.80;58.61;102648.75;4926555;28;119608;-69
2021/01/15 07:36:41;;;;;;;31.23;17.58;;;;;;;4.82;58.55;102652.25;4916868;28;119212;-69
2021/01/15 07:39:12;;;;;;;28.40;17.27;;;;;;;4.85;58.68;102654.00;4924531;28;124474;-69
2021/01/15 07:41:41;;;;;;;29.83;17.17;;;;;;;4.85;58.35;102660.13;4909310;28;121967;-68
2021/01/15 07:44:26;;;;;;;28.15;17.33;;;;;;;4.87;58.76;102663.66;4910135;28;120111;-69
2021/01/15 07:46:58;;;;;;;29.73;16.77;;;;;;;4.91;58.71;102663.69;4927752;28;119942;-69
2021/01/15 07:49:45;;;;;;;29.60;16.92;;;;;;;4.92;58.43;102681.22;4916218;28;124111;-68
2021/01/15 07:52:12;;;;;;;;;;;;;;;4.92;58.37;102678.59;4924430;28;123911;-68
2021/01/15 07:54:46;;;;;;;30.02;16.27;;;;;;;4.91;58.14;102675.06;4926900;28;120114;-69
2021/01/15 07:57:14;;;;;;;27.25;16.17;;;;;;;4.90;58.36;102682.91;4928709;28;119024;-69
2021/01/15 07:59:40;;;;;;;27.85;16.52;;;;;;;4.90;58.54;102682.91;4920151;28;122879;-68
2021/01/15 08:02:08;;;;;;;31.33;16.98;;;;;;;4.91;58.77;102689.94;4921069;28;123819;-68
2021/01/15 08:04:35;;;;;;;30.38;17.75;;;;;;;4.91;58.40;102689.94;4910138;28;118689;-69
2021/01/15 08:07:32;;;;;;;30.45;17.10;;;;;;;4.91;58.61;102705.69;4900533;28;118473;-69
2021/01/15 08:09:59;;;;;;;28.67;17.13;;;;;;;4.92;58.47;102696.97;4910860;28;123974;-69
2021/01/15 08:12:26;;;;;;;29.92;17.17;;;;;;;4.93;58.49;102703.94;4914101;28;123050;-69
2021/01/15 08:14:52;;;;;;;28.05;17.40;;;;;;;4.91;58.71;102711.81;4912431;28;119344;-69
2021/01/15 08:17:29;;;;;;;29.33;17.30;;;;;;;4.90;58.71;102720.56;4914114;28;119842;-69
2021/01/15 08:19:57;;;;;;;28.48;17.67;;;;;;;4.88;58.67;102715.31;4913058;28;124586;-69
2021/01/15 08:22:26;;;;;;;28.33;17.08;;;;;;;4.86;58.74;102714.41;4921055;28;124073;-69
2021/01/15 08:24:52;;;;;;;30.10;16.92;;;;;;;4.86;58.97;102718.78;4923945;28;118865;-69
2021/01/15 08:27:22;;;;;;;30.10;17.13;;;;;;;4.87;58.98;102726.66;4915641;28;119033;-69
2021/01/15 08:29:50;;;;;;;31.02;17.83;;;;;;;4.89;58.92;102726.69;4903837;28;124788;-69
2021/01/15 08:32:17;;;;;;;31.13;18.25;;;;;;;4.90;58.79;102741.56;4898840;28;123738;-69
2021/01/15 08:34:44;;;;;;;29.45;17.80;;;;;;;4.92;58.79;102744.22;4905759;28;119806;-69
2021/01/15 08:37:15;;;;;;;30.05;17.83;;;;;;;4.94;58.70;102747.75;4924547;28;120350;-69
2021/01/15 08:39:49;;;;;;;31.10;18.23;;;;;;;4.95;58.72;102745.09;4904652;28;124464;-69
2021/01/15 08:42:16;;;;;;;29.83;16.98;;;;;;;4.96;58.97;102746.00;4901211;28;124102;-69
2021/01/15 08:44:47;;;;;;;28.58;17.40;;;;;;;4.96;58.80;102749.50;4920122;28;119272;-69
2021/01/15 08:47:17;;;;;;;31.30;17.92;;;;;;;4.97;58.67;102758.25;4909561;28;121633;-69
2021/01/15 08:49:53;;;;;;;31.15;18.15;;;;;;;4.95;58.90;102754.72;4926330;28;124123;-69
2021/01/15 08:52:24;;;;;;;30.42;18.10;;;;;;;4.96;58.66;102761.75;4909582;28;125371;-69
2021/01/15 08:54:52;;;;;;;31.42;18.35;;;;;;;4.97;58.72;102768.75;4918274;28;119240;-69
2021/01/15 08:57:20;;;;;;;27.65;16.67;;;;;;;4.99;58.93;102764.38;4908690;28;118403;-69
2021/01/15 08:59:47;;;;;;;28.58;16.90;;;;;;;5.00;58.99;102758.28;4918810;28;123443;-69
2021/01/15 09:02:17;;;;;;;32.05;16.65;;;;;;;5.02;58.91;102761.81;4913340;28;124627;-69
2021/01/15 09:04:45;;;;;;;29.70;16.83;;;;;;;5.03;58.82;102774.97;4912022;28;119146;-69
2021/01/15 09:07:13;;;;;;;31.42;17.52;;;;;;;5.04;58.57;102775.81;4912842;28;118775;-69
2021/01/15 09:09:39;;;;;;;29.40;17.15;;;;;;;5.04;58.99;102781.94;4929975;28;124413;-69
2021/01/15 09:12:08;;;;;;;27.75;16.52;;;;;;;5.06;59.03;102784.59;4930638;28;124369;-69
2021/01/15 09:14:37;;;;;;;28.45;16.73;;;;;;;5.06;58.97;102779.34;4929450;28;119229;-70
2021/01/15 09:17:06;;;;;;;28.63;16.15;;;;;;;5.09;58.76;102789.88;4930966;28;121494;-69
2021/01/15 09:19:35;;;;;;;28.55;16.33;;;;;;;5.10;58.92;102793.38;4912832;28;123189;-69
2021/01/15 09:22:04;;;;;;;29.38;17.05;;;;;;;5.11;58.85;102798.66;4929603;28;124544;-70
2021/01/15 09:24:32;;;;;;;28.48;17.58;;;;;;;5.13;58.73;102796.06;4928798;28;120465;-70
2021/01/15 09:27:00;;;;;;;35.30;17.08;;;;;;;5.15;58.69;102805.69;4935277;28;120417;-69
2021/01/15 09:29:28;;;;;;;28.65;17.10;;;;;;;5.15;58.85;102813.56;4906012;28;122578;-69
2021/01/15 09:31:55;;;;;;;28.85;16.92;;;;;;;5.16;58.82;102814.44;4920506;28;123697;-69
2021/01/15 09:34:24;;;;;;;30.58;17.08;;;;;;;5.14;58.75;102819.72;4930271;28;118892;-69
2021/01/15 09:36:52;;;;;;;29.30;17.25;;;;;;;5.12;58.76;102816.16;4929778;28;119118;-69
2021/01/15 09:39:22;;;;;;;27.65;16.73;;;;;;;5.12;58.88;102821.41;4929941;28;125144;-69
2021/01/15 09:41:54;;;;;;;27.00;17.13;;;;;;;5.12;58.80;102826.66;4927832;28;123809;-69
2021/01/15 09:44:22;;;;;;;29.85;17.70;;;;;;;5.13;58.81;102828.44;4924310;28;119656;-69
2021/01/15 09:46:54;;;;;;;30.10;17.88;;;;;;;5.15;59.04;102831.97;4930123;28;119675;-70
2021/01/15 09:49:22;;;;;;;32.25;17.40;;;;;;;5.16;58.88;102839.00;4925844;28;124824;-71
2021/01/15 09:51:50;;;;;;;29.00;17.58;;;;;;;5.17;59.00;102835.47;4912210;28;122221;-69
2021/01/15 09:54:17;;;;;;;31.25;16.45;;;;;;;5.19;59.19;102836.38;4911113;28;118450;-70
2021/01/15 09:56:44;;;;;;;27.77;17.13;;;;;;;5.20;59.22;102819.75;4929512;28;118739;-69
2021/01/15 09:59:13;;;;;;;32.25;17.75;;;;;;;5.24;59.13;102816.28;4909038;28;124614;-69
2021/01/15 10:01:39;;;;;;;32.30;18.00;;;;;;;5.29;59.00;102818.06;4931705;28;124286;-70
2021/01/15 10:04:07;;;;;;;27.42;17.02;;;;;;;5.31;58.99;102822.47;4914670;28;120079;-70
2021/01/15 10:06:43;;;;;;;28.77;17.48;;;;;;;5.33;59.11;102831.25;4931594;28;119339;-69
2021/01/15 10:09:12;;;;;;;28.42;16.23;;;;;;;5.37;58.98;102837.41;4929807;28;124624;-70
2021/01/15 10:11:41;;;;;;;30.40;18.13;;;;;;;5.39;58.90;102840.94;4914455;28;123210;-70
2021/01/15 10:14:15;;;;;;;28.85;17.42;;;;;;;5.41;59.11;102844.47;4926133;28;119721;-70
2021/01/15 10:16:49;;;;;;;31.60;17.38;;;;;;;5.44;59.03;102847.09;4926441;28;118877;-70
2021/01/15 10:19:17;;;;;;;31.35;17.83;;;;;;;5.47;58.95;102855.03;4928942;28;124420;-70
2021/01/15 10:21:44;;;;;;;27.83;16.58;;;;;;;5.47;58.79;102855.03;4914430;28;124032;-70
2021/01/15 10:24:11;;;;;;;28.17;17.17;;;;;;;5.47;58.80;102860.28;4927312;28;119348;-70
2021/01/15 10:26:39;;;;;;;27.58;16.20;;;;;;;5.46;58.75;102861.13;4930142;28;118127;-70
2021/01/15 10:29:11;;;;;;;29.40;17.30;;;;;;;5.47;58.96;102868.16;4913020;28;123959;-70
2021/01/15 10:31:54;;;;;;;30.58;17.90;;;;;;;5.47;58.75;102870.78;4913156;28;123346;-70
2021/01/15 10:34:23;;;;;;;26.77;16.90;;;;;;;5.47;58.70;102870.78;4927566;28;119652;-70
2021/01/15 10:36:51;;;;;;;28.08;17.10;;;;;;;5.47;58.80;102870.78;4911902;28;118406;-70
2021/01/15 10:39:18;;;;;;;28.10;17.33;;;;;;;5.48;59.06;102872.53;4910800;28;124367;-70
2021/01/15 10:41:47;;;;;;;26.33;16.05;;;;;;;5.49;58.90;102869.06;4929497;28;124331;-70
2021/01/15 10:44:16;;;;;;;28.15;15.55;;;;;;;5.50;58.72;102864.66;4908950;28;120323;-70
2021/01/15 10:46:44;;;;;;;25.25;16.27;;;;;;;5.50;59.09;102864.66;4928760;28;119674;-70
2021/01/15 10:49:16;;;;;;;28.55;16.98;;;;;;;5.51;58.97;102867.31;4928558;28;123641;-70
2021/01/15 10:51:50;;;;;;;27.02;16.10;;;;;;;5.52;58.94;102868.19;4897223;28;123064;-70
2021/01/15 10:54:17;;;;;;;26.05;16.40;;;;;;;5.53;58.84;102876.09;4910772;28;119104;-70
2021/01/15 10:56:46;;;;;;;30.88;16.75;;;;;;;5.56;58.87;102870.88;4912034;28;118859;-69
2021/01/15 10:59:13;;;;;;;30.15;16.20;;;;;;;5.57;58.73;102862.09;4922208;28;124491;-70
2021/01/15 11:01:47;;;;;;;33.22;17.45;;;;;;;5.58;58.94;102874.41;4913688;28;124035;-70
2021/01/15 11:04:16;;;;;;;27.97;16.37;;;;;;;5.59;58.94;102870.88;4928810;28;120475;-70
2021/01/15 11:06:52;;;;;;;31.45;17.35;;;;;;;5.61;59.02;102874.44;4912398;28;119709;-70
2021/01/15 11:09:20;;;;;;;26.17;16.67;;;;;;;5.62;58.91;102876.16;4913510;28;123640;-70
2021/01/15 11:12:00;;;;;;;29.15;16.40;;;;;;;5.65;58.88;102870.94;4929057;28;124637;-70
2021/01/15 11:14:27;;;;;;;28.92;16.73;;;;;;;5.69;59.15;102876.22;4922438;28;118445;-70
2021/01/15 11:16:54;;;;;;;26.30;16.33;;;;;;;5.72;58.99;102860.47;4908816;28;117929;-71
2021/01/15 11:19:22;;;;;;;27.30;16.15;;;;;;;5.75;59.12;102865.78;4973473;22;123761;-71
2021/01/15 11:21:50;;;;;;;29.15;15.20;;;;;;;5.77;59.03;102874.53;4930863;28;123176;-71
2021/01/15 11:24:17;;;;;;;24.67;14.70;;;;;;;5.77;58.90;102882.44;4925833;28;118678;-71
2021/01/15 11:26:44;;;;;;;27.23;15.40;;;;;;;5.76;58.87;102883.28;4923320;28;118748;-71